Home > Products > Valid Products > TAF

000
FTUS41 KBOX 222344
TAFBOS
TAF
KBOS 222344Z 2300/2406 07008KT P6SM SCT025 BKN100
     FM230300 06006KT P6SM OVC025
     FM230700 04007KT P6SM OVC015
     FM231400 05008KT P6SM BKN025
     FM231600 06009KT P6SM BKN040
     FM231900 07010KT P6SM SCT200
     FM240000 08006KT P6SM FEW250=



000
FTUS41 KBOX 222344
TAFACK
TAF
KACK 222344Z 2300/2324 06011KT P6SM BKN080
     FM230500 07010KT 5SM BR OVC040
     FM230700 06010KT P6SM OVC015
     FM230900 05011KT P6SM OVC025
     FM231500 04013KT P6SM BKN035
     FM232200 05012KT P6SM BKN020=



000
FTUS41 KBOX 222344
TAFORH
TAF
KORH 222344Z 2300/2324 08005KT P6SM BKN025 OVC080
     FM230400 06006KT P6SM OVC020
     FM230600 04006KT P6SM OVC008
     FM230800 04005KT P6SM OVC003
     FM231400 05006KT P6SM BKN015
     FM231600 05006KT P6SM BKN040
     FM232100 08006KT P6SM SCT200=



000
FTUS41 KBOX 222344
TAFBOS
TAF
KBOS 222344Z 2300/2406 07008KT P6SM SCT025 BKN100
     FM230300 06006KT P6SM OVC025
     FM230700 04007KT P6SM OVC015
     FM231400 05008KT P6SM BKN025
     FM231600 06009KT P6SM BKN040
     FM231900 07010KT P6SM SCT200
     FM240000 08006KT P6SM FEW250=



000
FTUS41 KBOX 222344
TAFPVD
TAF
KPVD 222344Z 2300/2324 06008KT P6SM SCT030 BKN080
     FM230600 04006KT P6SM OVC030
     FM230700 03005KT P6SM OVC015
     FM231300 03008KT P6SM BKN025
     FM231500 05009KT P6SM BKN040
     FM232100 07010KT P6SM SCT200=



000
FTUS41 KBOX 222344
TAFBDL
TAF
KBDL 222344Z 2300/2406 06004KT P6SM SCT015 BKN030 OVC060
     FM230300 07004KT P6SM OVC015
     FM230600 VRB03KT P6SM BKN020
     FM231300 04005KT P6SM BKN025
     FM231500 05005KT P6SM BKN040
     FM232000 06005KT P6SM SCT130=



000
FTUS41 KBOX 222344
TAFBAF
TAF
KBAF 222344Z 2300/2324 05004KT P6SM SCT020 OVC040
     FM230400 VRB03KT P6SM OVC020
     FM230600 VRB03KT P6SM OVC015
     FM230900 VRB03KT P6SM OVC008
     FM231300 04005KT P6SM BKN015
     FM231500 05006KT P6SM BKN040
     FM232000 07005KT P6SM SCT150
     FM232300 09004KT P6SM SCT040=



000
FTUS41 KBOX 222344
TAFMHT
TAF
KMHT 222344Z 2300/2324 09005KT P6SM FEW020 OVC050
     FM230600 00000KT P6SM OVC020
     FM230800 00000KT P6SM OVC008
     FM231300 04005KT P6SM BKN020
     FM231600 05006KT P6SM BKN040
     FM232100 09006KT P6SM BKN250=



000
FTUS41 KBOX 222344
TAFBDL
TAF
KBDL 222344Z 2300/2406 06004KT P6SM SCT015 BKN030 OVC060
     FM230300 07004KT P6SM OVC015
     FM230600 VRB03KT P6SM BKN020
     FM231300 04005KT P6SM BKN025
     FM231500 05005KT P6SM BKN040
     FM232000 06005KT P6SM SCT130=



000
FTUS41 KBOX 222344
TAFBAF
TAF
KBAF 222344Z 2300/2324 05004KT P6SM SCT020 OVC040
     FM230400 VRB03KT P6SM OVC020
     FM230600 VRB03KT P6SM OVC015
     FM230900 VRB03KT P6SM OVC008
     FM231300 04005KT P6SM BKN015
     FM231500 05006KT P6SM BKN040
     FM232000 07005KT P6SM SCT150
     FM232300 09004KT P6SM SCT040=



000
FTUS41 KBOX 222344
TAFMHT
TAF
KMHT 222344Z 2300/2324 09005KT P6SM FEW020 OVC050
     FM230600 00000KT P6SM OVC020
     FM230800 00000KT P6SM OVC008
     FM231300 04005KT P6SM BKN020
     FM231600 05006KT P6SM BKN040
     FM232100 09006KT P6SM BKN250=



000
FTUS41 KBOX 222344
TAFORH
TAF
KORH 222344Z 2300/2324 08005KT P6SM BKN025 OVC080
     FM230400 06006KT P6SM OVC020
     FM230600 04006KT P6SM OVC008
     FM230800 04005KT P6SM OVC003
     FM231400 05006KT P6SM BKN015
     FM231600 05006KT P6SM BKN040
     FM232100 08006KT P6SM SCT200=



000
FTUS41 KBOX 222344
TAFACK
TAF
KACK 222344Z 2300/2324 06011KT P6SM BKN080
     FM230500 07010KT 5SM BR OVC040
     FM230700 06010KT P6SM OVC015
     FM230900 05011KT P6SM OVC025
     FM231500 04013KT P6SM BKN035
     FM232200 05012KT P6SM BKN020=



000
FTUS41 KBOX 222344
TAFPVD
TAF
KPVD 222344Z 2300/2324 06008KT P6SM SCT030 BKN080
     FM230600 04006KT P6SM OVC030
     FM230700 03005KT P6SM OVC015
     FM231300 03008KT P6SM BKN025
     FM231500 05009KT P6SM BKN040
     FM232100 07010KT P6SM SCT200=



000
FTUS41 KBOX 222116 AAA
TAFMHT
TAF AMD
KMHT 222116Z 2221/2318 08006KT P6SM SCT020 OVC040
     FM230300 VRB03KT P6SM BKN015
     FM230700 00000KT P6SM BKN008
     FM231400 04005KT P6SM BKN020
     FM231600 05006KT P6SM BKN040=



000
FTUS41 KBOX 222116 AAA
TAFPVD
TAF AMD
KPVD 222116Z 2221/2318 05008KT P6SM SCT025 SCT070 BKN100
     FM230300 05006KT P6SM BKN020
     FM231300 03008KT P6SM BKN025
     FM231500 05009KT P6SM BKN040=



000
FTUS41 KBOX 222116 AAA
TAFBDL
TAF AMD
KBDL 222116Z 2221/2324 06005KT P6SM SCT020 BKN050 OVC200
     FM230400 04004KT P6SM BKN020
     FM231500 05005KT P6SM BKN040
     FM232000 06005KT P6SM SCT130=



000
FTUS41 KBOX 222116 AAA
TAFBOS
TAF AMD
KBOS 222116Z 2221/2324 07010KT P6SM FEW025 SCT100 BKN200
     FM230200 06006KT P6SM BKN015
     FM231400 05008KT P6SM BKN025
     FM231600 06009KT P6SM BKN040
     FM231900 07010KT P6SM SCT200=



000
FTUS41 KBOX 221729
TAFACK
TAF
KACK 221729Z 2218/2318 08012KT P6SM BKN100
     FM230400 06009KT P6SM BKN025
     FM230600 05009KT P6SM BKN015
     FM230900 04010KT P6SM BKN025
     FM231500 04013KT P6SM BKN035=



000
FTUS41 KBOX 221729
TAFPVD
TAF
KPVD 221729Z 2218/2318 05008KT P6SM SCT025 OVC050
     FM230300 05006KT P6SM BKN020
     FM231300 03008KT P6SM BKN025
     FM231500 05009KT P6SM BKN040=



000
FTUS41 KBOX 221729
TAFORH
TAF
KORH 221729Z 2218/2318 08005KT P6SM BKN008 OVC060
     FM222100 08004KT P6SM BKN020
     FM230200 06004KT P6SM OVC003
     FM231400 05006KT P6SM BKN015
     FM231600 05006KT P6SM BKN040=



000
FTUS41 KBOX 221729
TAFMHT
TAF
KMHT 221729Z 2218/2318 08006KT P6SM BKN015 OVC030
     FM222000 10007KT P6SM OVC050
     FM230300 VRB03KT P6SM BKN015
     FM230700 00000KT P6SM BKN008
     FM231400 04005KT P6SM BKN020
     FM231600 05006KT P6SM BKN040=



000
FTUS41 KBOX 221729
TAFBAF
TAF
KBAF 221729Z 2218/2318 03006KT P6SM SCT015 OVC040
     FM230300 VRB03KT P6SM OVC025
     FM230900 02004KT P6SM BKN008
     FM231300 04005KT P6SM BKN015
     FM231500 05006KT P6SM BKN035=



000
FTUS41 KBOX 221729
TAFBOS
TAF
KBOS 221729Z 2218/2324 07010KT P6SM SCT025 OVC080
     FM230200 06006KT P6SM BKN015
     FM231400 05008KT P6SM BKN025
     FM231600 06009KT P6SM BKN040
     FM231900 07010KT P6SM SCT200=



000
FTUS41 KBOX 221729
TAFORH
TAF
KORH 221729Z 2218/2318 08005KT P6SM BKN008 OVC060
     FM222100 08004KT P6SM BKN020
     FM230200 06004KT P6SM OVC003
     FM231400 05006KT P6SM BKN015
     FM231600 05006KT P6SM BKN040=



000
FTUS41 KBOX 221729
TAFBOS
TAF
KBOS 221729Z 2218/2324 07010KT P6SM SCT025 OVC080
     FM230200 06006KT P6SM BKN015
     FM231400 05008KT P6SM BKN025
     FM231600 06009KT P6SM BKN040
     FM231900 07010KT P6SM SCT200=



000
FTUS41 KBOX 221729
TAFMHT
TAF
KMHT 221729Z 2218/2318 08006KT P6SM BKN015 OVC030
     FM222000 10007KT P6SM OVC050
     FM230300 VRB03KT P6SM BKN015
     FM230700 00000KT P6SM BKN008
     FM231400 04005KT P6SM BKN020
     FM231600 05006KT P6SM BKN040=



000
FTUS41 KBOX 221729
TAFPVD
TAF
KPVD 221729Z 2218/2318 05008KT P6SM SCT025 OVC050
     FM230300 05006KT P6SM BKN020
     FM231300 03008KT P6SM BKN025
     FM231500 05009KT P6SM BKN040=



000
FTUS41 KBOX 221729
TAFBDL
TAF
KBDL 221729Z 2218/2324 06005KT P6SM SCT015 OVC045
     FM230400 04004KT P6SM BKN020
     FM231500 05005KT P6SM BKN040
     FM232000 06005KT P6SM SCT130=



000
FTUS41 KBOX 221729
TAFBDL
TAF
KBDL 221729Z 2218/2324 06005KT P6SM SCT015 OVC045
     FM230400 04004KT P6SM BKN020
     FM231500 05005KT P6SM BKN040
     FM232000 06005KT P6SM SCT130=



000
FTUS41 KBOX 221729
TAFACK
TAF
KACK 221729Z 2218/2318 08012KT P6SM BKN100
     FM230400 06009KT P6SM BKN025
     FM230600 05009KT P6SM BKN015
     FM230900 04010KT P6SM BKN025
     FM231500 04013KT P6SM BKN035=



000
FTUS41 KBOX 221729
TAFBAF
TAF
KBAF 221729Z 2218/2318 03006KT P6SM SCT015 OVC040
     FM230300 VRB03KT P6SM OVC025
     FM230900 02004KT P6SM BKN008
     FM231300 04005KT P6SM BKN015
     FM231500 05006KT P6SM BKN035=



000
FTUS41 KBOX 221516 AAC
TAFPVD
TAF AMD
KPVD 221516Z 2215/2312 03010KT P6SM BKN015 BKN060
     FM221700 03009KT P6SM SCT015 OVC050=



000
FTUS41 KBOX 221516 AAC
TAFPVD
TAF AMD
KPVD 221516Z 2215/2312 03010KT P6SM BKN015 BKN060
     FM221700 03009KT P6SM SCT015 OVC050=



000
FTUS41 KBOX 221508 AAB
TAFPVD
TAF AMD
KPVD 221508Z 2215/2312 03010KT P6SM BKN015 BKN060
     FM221700 03009KT P6SM SCT015 OVC050=



000
FTUS41 KBOX 221508 AAB
TAFPVD
TAF AMD
KPVD 221508Z 2215/2312 03010KT P6SM BKN015 BKN060
     FM221700 03009KT P6SM SCT015 OVC050=



000
FTUS41 KBOX 221505 AAB
TAFMHT
TAF AMD
KMHT 221505Z 2215/2312 08007KT P6SM OVC007
     FM221700 36006KT P6SM SCT007 OVC025
     FM221900 02006KT P6SM OVC050
     FM230300 00000KT P6SM BKN090=



000
FTUS41 KBOX 221505 AAB
TAFMHT
TAF AMD
KMHT 221505Z 2215/2312 08007KT P6SM OVC007
     FM221700 36006KT P6SM SCT007 OVC025
     FM221900 02006KT P6SM OVC050
     FM230300 00000KT P6SM BKN090=



000
FTUS41 KBOX 221503 AAA
TAFBDL
TAF AMD
KBDL 221503Z 2215/2318 36005KT P6SM OVC040
     FM230600 01004KT P6SM OVC060=



000
FTUS41 KBOX 221503 AAA
TAFBDL
TAF AMD
KBDL 221503Z 2215/2318 36005KT P6SM OVC040
     FM230600 01004KT P6SM OVC060=



000
FTUS41 KBOX 221503 AAA
TAFBOS
TAF AMD
KBOS 221503Z 2215/2318 06008KT P6SM BKN008 OVC080
     FM221700 07008KT P6SM SCT015 BKN080
     FM230500 03006KT P6SM BKN080
     FM231400 05010KT P6SM BKN040=



000
FTUS41 KBOX 221503 AAA
TAFBOS
TAF AMD
KBOS 221503Z 2215/2318 06008KT P6SM BKN008 OVC080
     FM221700 07008KT P6SM SCT015 BKN080
     FM230500 03006KT P6SM BKN080
     FM231400 05010KT P6SM BKN040=



000
FTUS41 KBOX 221422 AAB
TAFORH
TAF AMD
KORH 221422Z 2214/2312 03005KT P6SM OVC004
     FM221500 04006KT P6SM OVC015
     FM221800 07005KT P6SM OVC040
     FM230600 01004KT P6SM BKN080
     FM230800 01005KT P6SM BKN010=



000
FTUS41 KBOX 221422 AAB
TAFORH
TAF AMD
KORH 221422Z 2214/2312 03005KT P6SM OVC004
     FM221500 04006KT P6SM OVC015
     FM221800 07005KT P6SM OVC040
     FM230600 01004KT P6SM BKN080
     FM230800 01005KT P6SM BKN010=



000
FTUS41 KBOX 221339 AAA
TAFMHT
TAF AMD
KMHT 221339Z 2214/2312 36005KT P6SM BKN007 OVC015
     FM221500 36006KT P6SM SCT007 OVC050
     FM221600 02006KT P6SM OVC050
     FM230300 00000KT P6SM BKN090=



000
FTUS41 KBOX 221339 AAA
TAFMHT
TAF AMD
KMHT 221339Z 2214/2312 36005KT P6SM BKN007 OVC015
     FM221500 36006KT P6SM SCT007 OVC050
     FM221600 02006KT P6SM OVC050
     FM230300 00000KT P6SM BKN090=



000
FTUS41 KBOX 221154 AAA
TAFACK
TAF AMD
KACK 221154Z 2212/2312 06008KT P6SM BKN005
     FM221400 06008KT P6SM SCT025 BKN080=



000
FTUS41 KBOX 221154 AAA
TAFACK
TAF AMD
KACK 221154Z 2212/2312 06008KT P6SM BKN005
     FM221400 06008KT P6SM SCT025 BKN080=



000
FTUS41 KBOX 221153 AAA
TAFPVD
TAF AMD
KPVD 221153Z 2212/2312 03006KT P6SM BKN009 OVC060
     FM221300 05006KT P6SM OVC060=



000
FTUS41 KBOX 221153 AAA
TAFPVD
TAF AMD
KPVD 221153Z 2212/2312 03006KT P6SM BKN009 OVC060
     FM221300 05006KT P6SM OVC060=



000
FTUS41 KBOX 221135 AAA
TAFORH
TAF AMD
KORH 221135Z 2212/2312 03005KT P6SM SCT003 OVC030
     FM221500 07005KT P6SM OVC040
     FM230600 01004KT P6SM BKN080
     FM230800 01005KT P6SM BKN010=



000
FTUS41 KBOX 221120
TAFBAF
TAF
KBAF 221120Z 2212/2312 03004KT P6SM OVC030
     FM221400 08005KT P6SM OVC030
     FM221700 06005KT P6SM OVC035=



000
FTUS41 KBOX 221120
TAFMHT
TAF
KMHT 221120Z 2212/2312 03004KT P6SM OVC050
     FM221500 08005KT P6SM OVC035
     FM230300 00000KT P6SM BKN090=



000
FTUS41 KBOX 221120
TAFPVD
TAF
KPVD 221120Z 2212/2312 05005KT P6SM OVC060=



000
FTUS41 KBOX 221120
TAFBOS
TAF
KBOS 221120Z 2212/2318 34007KT P6SM VCSH OVC010
     FM221400 06007KT P6SM VCSH OVC015
     FM221600 07008KT P6SM OVC040
     FM230500 03006KT P6SM BKN080
     FM231400 05010KT P6SM BKN040=



000
FTUS41 KBOX 221120
TAFBAF
TAF
KBAF 221120Z 2212/2312 03004KT P6SM OVC030
     FM221400 08005KT P6SM OVC030
     FM221700 06005KT P6SM OVC035=



000
FTUS41 KBOX 221120
TAFBDL
TAF
KBDL 221120Z 2212/2318 07006KT P6SM OVC035
     FM230600 01004KT P6SM OVC060=



000
FTUS41 KBOX 221120
TAFACK
TAF
KACK 221120Z 2212/2312 06008KT P6SM OVC250=



000
FTUS41 KBOX 221120
TAFPVD
TAF
KPVD 221120Z 2212/2312 05005KT P6SM OVC060=



000
FTUS41 KBOX 221120
TAFORH
TAF
KORH 221120Z 2212/2312 07005KT P6SM OVC003
     FM221500 07005KT P6SM OVC015
     FM221700 07005KT P6SM OVC040
     FM230600 01004KT P6SM BKN080
     FM230800 01005KT P6SM BKN010=



000
FTUS41 KBOX 221120
TAFACK
TAF
KACK 221120Z 2212/2312 06008KT P6SM OVC250=



000
FTUS41 KBOX 221120
TAFBDL
TAF
KBDL 221120Z 2212/2318 07006KT P6SM OVC035
     FM230600 01004KT P6SM OVC060=



000
FTUS41 KBOX 221120
TAFBOS
TAF
KBOS 221120Z 2212/2318 34007KT P6SM VCSH OVC010
     FM221400 06007KT P6SM VCSH OVC015
     FM221600 07008KT P6SM OVC040
     FM230500 03006KT P6SM BKN080
     FM231400 05010KT P6SM BKN040=



000
FTUS41 KBOX 221120
TAFMHT
TAF
KMHT 221120Z 2212/2312 03004KT P6SM OVC050
     FM221500 08005KT P6SM OVC035
     FM230300 00000KT P6SM BKN090=



000
FTUS41 KBOX 221120
TAFORH
TAF
KORH 221120Z 2212/2312 07005KT P6SM OVC003
     FM221500 07005KT P6SM OVC015
     FM221700 07005KT P6SM OVC040
     FM230600 01004KT P6SM BKN080
     FM230800 01005KT P6SM BKN010=



000
FTUS41 KBOX 220831 AAA
TAFACK
TAF AMD
KACK 220831Z 2209/2306 08005KT P6SM BKN090
      TEMPO 2209/2212 1/4SM FG OVC001
     FM221200 06009KT P6SM OVC090=



000
FTUS41 KBOX 220831 AAA
TAFACK
TAF AMD
KACK 220831Z 2209/2306 08005KT P6SM BKN090
      TEMPO 2209/2212 1/4SM FG OVC001
     FM221200 06009KT P6SM OVC090=



000
FTUS41 KBOX 220813 AAA
TAFPVD
TAF AMD
KPVD 220813Z 2208/2306 VRB03KT P6SM OVC060
     FM221500 07007KT P6SM OVC060
     FM230400 03006KT P6SM OVC080=



000
FTUS41 KBOX 220813 AAA
TAFPVD
TAF AMD
KPVD 220813Z 2208/2306 VRB03KT P6SM OVC060
     FM221500 07007KT P6SM OVC060
     FM230400 03006KT P6SM OVC080=



000
FTUS41 KBOX 220812 AAA
TAFMHT
TAF AMD
KMHT 220812Z 2208/2306 VRB03KT 3SM -SHRA BR SCT025 OVC040
     FM221000 VRB03KT P6SM OVC060
     FM221800 08005KT P6SM OVC060
     FM230300 00000KT P6SM BKN090=



000
FTUS41 KBOX 220812 AAA
TAFMHT
TAF AMD
KMHT 220812Z 2208/2306 VRB03KT 3SM -SHRA BR SCT025 OVC040
     FM221000 VRB03KT P6SM OVC060
     FM221800 08005KT P6SM OVC060
     FM230300 00000KT P6SM BKN090=



000
FTUS41 KBOX 220811 AAA
TAFBAF
TAF AMD
KBAF 220811Z 2208/2306 VRB03KT P6SM OVC015
     FM220900 03004KT 5SM BR OVC040
     FM221100 05004KT P6SM OVC040=



000
FTUS41 KBOX 220811 AAA
TAFBAF
TAF AMD
KBAF 220811Z 2208/2306 VRB03KT P6SM OVC015
     FM220900 03004KT 5SM BR OVC040
     FM221100 05004KT P6SM OVC040=



000
FTUS41 KBOX 220808 AAA
TAFBDL
TAF AMD
KBDL 220808Z 2208/2312 VRB03KT P6SM -SHRA OVC030
     FM220900 06004KT 5SM BR OVC025
     FM221200 06004KT 6SM BR OVC040=



000
FTUS41 KBOX 220808 AAA
TAFBDL
TAF AMD
KBDL 220808Z 2208/2312 VRB03KT P6SM -SHRA OVC030
     FM220900 06004KT 5SM BR OVC025
     FM221200 06004KT 6SM BR OVC040=



000
FTUS41 KBOX 220807 AAA
TAFBOS
TAF AMD
KBOS 220807Z 2208/2312 36004KT P6SM -SHRA SCT010 OVC070
     FM221500 07008KT P6SM OVC070
     FM230500 03006KT P6SM BKN080=



000
FTUS41 KBOX 220807 AAA
TAFBOS
TAF AMD
KBOS 220807Z 2208/2312 36004KT P6SM -SHRA SCT010 OVC070
     FM221500 07008KT P6SM OVC070
     FM230500 03006KT P6SM BKN080=



000
FTUS41 KBOX 220541
TAFBDL
TAF
KBDL 220541Z 2206/2312 VRB03KT P6SM -SHRA OVC045
     FM220900 06004KT 5SM BR OVC040
     FM221000 06004KT 6SM BR OVC040=



000
FTUS41 KBOX 220541
TAFORH
TAF
KORH 220541Z 2206/2306 05004KT 6SM -SHRA BR OVC003
     FM221400 07005KT 6SM BR OVC050=



000
FTUS41 KBOX 220541
TAFMHT
TAF
KMHT 220541Z 2206/2306 VRB03KT 3SM -SHRA BR BKN025 OVC040
     FM220900 VRB03KT 5SM BR OVC050
     FM221100 VRB03KT P6SM OVC060
     FM221800 08005KT P6SM OVC060
     FM230300 00000KT P6SM BKN090=



000
FTUS41 KBOX 220541
TAFPVD
TAF
KPVD 220541Z 2206/2306 VRB03KT P6SM OVC060
     FM221500 07007KT P6SM OVC060
     FM230400 03006KT P6SM OVC080=



000
FTUS41 KBOX 220541
TAFACK
TAF
KACK 220541Z 2206/2306 08005KT P6SM BKN090
      TEMPO 2206/2210 OVC004
     FM221200 06009KT P6SM OVC090=



000
FTUS41 KBOX 220541
TAFBOS
TAF
KBOS 220541Z 2206/2312 03004KT P6SM -SHRA SCT010 OVC070
     FM221500 07008KT P6SM OVC070
     FM230500 03006KT P6SM BKN080=



000
FTUS41 KBOX 220541
TAFBAF
TAF
KBAF 220541Z 2206/2306 VRB03KT 5SM -SHRA BR SCT020 OVC060
     FM220730 VRB03KT P6SM OVC015
     FM220900 03004KT 5SM BR OVC040
     FM221100 05004KT P6SM OVC040=



000
FTUS41 KBOX 220541
TAFORH
TAF
KORH 220541Z 2206/2306 05004KT 6SM -SHRA BR OVC003
     FM221400 07005KT 6SM BR OVC050=



000
FTUS41 KBOX 220541
TAFBDL
TAF
KBDL 220541Z 2206/2312 VRB03KT P6SM -SHRA OVC045
     FM220900 06004KT 5SM BR OVC040
     FM221000 06004KT 6SM BR OVC040=



000
FTUS41 KBOX 220541
TAFBOS
TAF
KBOS 220541Z 2206/2312 03004KT P6SM -SHRA SCT010 OVC070
     FM221500 07008KT P6SM OVC070
     FM230500 03006KT P6SM BKN080=



000
FTUS41 KBOX 220541
TAFACK
TAF
KACK 220541Z 2206/2306 08005KT P6SM BKN090
      TEMPO 2206/2210 OVC004
     FM221200 06009KT P6SM OVC090=



000
FTUS41 KBOX 220541
TAFPVD
TAF
KPVD 220541Z 2206/2306 VRB03KT P6SM OVC060
     FM221500 07007KT P6SM OVC060
     FM230400 03006KT P6SM OVC080=



000
FTUS41 KBOX 220541
TAFMHT
TAF
KMHT 220541Z 2206/2306 VRB03KT 3SM -SHRA BR BKN025 OVC040
     FM220900 VRB03KT 5SM BR OVC050
     FM221100 VRB03KT P6SM OVC060
     FM221800 08005KT P6SM OVC060
     FM230300 00000KT P6SM BKN090=



000
FTUS41 KBOX 220541
TAFBAF
TAF
KBAF 220541Z 2206/2306 VRB03KT 5SM -SHRA BR SCT020 OVC060
     FM220730 VRB03KT P6SM OVC015
     FM220900 03004KT 5SM BR OVC040
     FM221100 05004KT P6SM OVC040=



000
FTUS41 KBOX 220324 AAA
TAFPVD
TAF AMD
KPVD 220324Z 2203/2224 VRB03KT P6SM SCT025 OVC150
     FM220800 08004KT P6SM BKN050
     FM221400 06007KT P6SM OVC035
     FM221600 06007KT P6SM OVC040=



000
FTUS41 KBOX 220324 AAA
TAFPVD
TAF AMD
KPVD 220324Z 2203/2224 VRB03KT P6SM SCT025 OVC150
     FM220800 08004KT P6SM BKN050
     FM221400 06007KT P6SM OVC035
     FM221600 06007KT P6SM OVC040=



000
FTUS41 KBOX 220324 AAB
TAFMHT
TAF AMD
KMHT 220324Z 2203/2224 32004KT 6SM -SHRA SCT025 OVC050
     FM220600 10004KT 5SM BR OVC050
     FM221000 07004KT 5SM BR OVC015
     FM221300 06005KT P6SM OVC035
     FM221700 07005KT P6SM BKN045=



000
FTUS41 KBOX 220324 AAB
TAFMHT
TAF AMD
KMHT 220324Z 2203/2224 32004KT 6SM -SHRA SCT025 OVC050
     FM220600 10004KT 5SM BR OVC050
     FM221000 07004KT 5SM BR OVC015
     FM221300 06005KT P6SM OVC035
     FM221700 07005KT P6SM BKN045=



000
FTUS41 KBOX 220323 AAA
TAFBAF
TAF AMD
KBAF 220323Z 2203/2224 36004KT P6SM OVC015
     FM220800 VRB03KT 5SM -SHRA BR OVC020
     FM221100 VRB03KT 3SM -SHRA BR OVC015
     FM221200 VRB03KT 5SM BR OVC015
     FM221500 06005KT P6SM OVC025
     FM221800 06006KT P6SM OVC035=



000
FTUS41 KBOX 220323 AAA
TAFBAF
TAF AMD
KBAF 220323Z 2203/2224 36004KT P6SM OVC015
     FM220800 VRB03KT 5SM -SHRA BR OVC020
     FM221100 VRB03KT 3SM -SHRA BR OVC015
     FM221200 VRB03KT 5SM BR OVC015
     FM221500 06005KT P6SM OVC025
     FM221800 06006KT P6SM OVC035=



000
FTUS41 KBOX 220323 AAB
TAFORH
TAF AMD
KORH 220323Z 2203/2224 07005KT 6SM -SHRA BKN008 OVC045
     FM220900 08005KT P6SM OVC015
     FM221400 07008KT P6SM OVC030
     FM221600 07009KT P6SM OVC035=



000
FTUS41 KBOX 220323 AAB
TAFORH
TAF AMD
KORH 220323Z 2203/2224 07005KT 6SM -SHRA BKN008 OVC045
     FM220900 08005KT P6SM OVC015
     FM221400 07008KT P6SM OVC030
     FM221600 07009KT P6SM OVC035=



000
FTUS41 KBOX 220314 AAB
TAFBOS
TAF AMD
KBOS 220314Z 2203/2306 06005KT P6SM SCT015 BKN045
     FM220900 07005KT P6SM SCT050 BKN080
     FM221200 06007KT P6SM BKN050=



000
FTUS41 KBOX 220158 AAA
TAFMHT
TAF AMD
KMHT 220158Z 2202/2224 32004KT 6SM -SHRA SCT025 OVC050
     FM220600 10004KT 5SM BR OVC050
     FM221000 07004KT 5SM BR OVC015
     FM221300 06005KT P6SM OVC035
     FM221700 07005KT P6SM BKN045=



000
FTUS41 KBOX 220158 AAA
TAFMHT
TAF AMD
KMHT 220158Z 2202/2224 32004KT 6SM -SHRA SCT025 OVC050
     FM220600 10004KT 5SM BR OVC050
     FM221000 07004KT 5SM BR OVC015
     FM221300 06005KT P6SM OVC035
     FM221700 07005KT P6SM BKN045=



000
FTUS41 KBOX 220157 AAA
TAFORH
TAF AMD
KORH 220157Z 2202/2224 06005KT 6SM -SHRA BKN015 OVC045
     FM220900 08005KT P6SM OVC015
     FM221400 07008KT P6SM OVC030
     FM221600 07009KT P6SM OVC035=



000
FTUS41 KBOX 220146 AAA
TAFBOS
TAF AMD
KBOS 220146Z 2202/2306 06007KT P6SM SCT015 BKN100
     FM220900 07005KT P6SM SCT050 BKN080
     FM221200 06007KT P6SM BKN050=



000
FTUS41 KBOX 220146 AAA
TAFBOS
TAF AMD
KBOS 220146Z 2202/2306 06007KT P6SM SCT015 BKN100
     FM220900 07005KT P6SM SCT050 BKN080
     FM221200 06007KT P6SM BKN050=



000
FTUS41 KBOX 212330
TAFBDL
TAF
KBDL 212330Z 2200/2306 15005KT P6SM SCT030 OVC060
     FM220500 15004KT P6SM -SHRA OVC050
     FM220800 VRB03KT P6SM -SHRA OVC020
     FM221200 VRB03KT 3SM BR OVC015
     FM221400 07004KT P6SM OVC015
     FM221700 07005KT P6SM OVC035
     FM222200 06004KT P6SM OVC030=



000
FTUS41 KBOX 212330
TAFACK
TAF
KACK 212330Z 2200/2224 04005KT P6SM BKN250
     FM220400 05006KT P6SM SCT025 BKN150
     FM221000 06007KT P6SM SCT015 BKN060
     FM221300 07009KT P6SM BKN050=



000
FTUS41 KBOX 212330
TAFPVD
TAF
KPVD 212330Z 2200/2224 14005KT P6SM BKN040 OVC150
     FM220800 08004KT P6SM BKN050
     FM221400 06007KT P6SM OVC035
     FM221600 06007KT P6SM OVC040=



000
FTUS41 KBOX 212330
TAFMHT
TAF
KMHT 212330Z 2200/2224 04005KT 5SM RA BR SCT020 OVC060
     FM220200 06004KT P6SM SCT025 OVC050
     FM220400 10004KT 5SM BR OVC050
     FM221000 07004KT 5SM BR OVC015
     FM221300 06005KT P6SM OVC035
     FM221700 07005KT P6SM BKN045=



000
FTUS41 KBOX 212330
TAFBAF
TAF
KBAF 212330Z 2200/2224 36004KT P6SM OVC045
     FM220500 15004KT 5SM -SHRA BR OVC025
     FM220800 VRB03KT 5SM -SHRA BR OVC020
     FM221100 VRB03KT 3SM -SHRA BR OVC015
     FM221200 VRB03KT 5SM BR OVC015
     FM221500 06005KT P6SM OVC025
     FM221800 06006KT P6SM OVC035=



000
FTUS41 KBOX 212330
TAFBOS
TAF
KBOS 212330Z 2200/2306 09006KT P6SM SCT035 BKN100
     FM220900 07005KT P6SM SCT050 BKN080
     FM221200 06007KT P6SM BKN050=



000
FTUS41 KBOX 212330
TAFORH
TAF
KORH 212330Z 2200/2224 06005KT P6SM OVC045
     FM220300 13005KT P6SM OVC035
     FM220900 08005KT P6SM OVC015
     FM221400 07008KT P6SM OVC030
     FM221600 07009KT P6SM OVC035=



000
FTUS41 KBOX 212330
TAFBDL
TAF
KBDL 212330Z 2200/2306 15005KT P6SM SCT030 OVC060
     FM220500 15004KT P6SM -SHRA OVC050
     FM220800 VRB03KT P6SM -SHRA OVC020
     FM221200 VRB03KT 3SM BR OVC015
     FM221400 07004KT P6SM OVC015
     FM221700 07005KT P6SM OVC035
     FM222200 06004KT P6SM OVC030=



000
FTUS41 KBOX 212330
TAFMHT
TAF
KMHT 212330Z 2200/2224 04005KT 5SM RA BR SCT020 OVC060
     FM220200 06004KT P6SM SCT025 OVC050
     FM220400 10004KT 5SM BR OVC050
     FM221000 07004KT 5SM BR OVC015
     FM221300 06005KT P6SM OVC035
     FM221700 07005KT P6SM BKN045=



000
FTUS41 KBOX 212330
TAFPVD
TAF
KPVD 212330Z 2200/2224 14005KT P6SM BKN040 OVC150
     FM220800 08004KT P6SM BKN050
     FM221400 06007KT P6SM OVC035
     FM221600 06007KT P6SM OVC040=



000
FTUS41 KBOX 212330
TAFORH
TAF
KORH 212330Z 2200/2224 06005KT P6SM OVC045
     FM220300 13005KT P6SM OVC035
     FM220900 08005KT P6SM OVC015
     FM221400 07008KT P6SM OVC030
     FM221600 07009KT P6SM OVC035=



000
FTUS41 KBOX 212330
TAFBAF
TAF
KBAF 212330Z 2200/2224 36004KT P6SM OVC045
     FM220500 15004KT 5SM -SHRA BR OVC025
     FM220800 VRB03KT 5SM -SHRA BR OVC020
     FM221100 VRB03KT 3SM -SHRA BR OVC015
     FM221200 VRB03KT 5SM BR OVC015
     FM221500 06005KT P6SM OVC025
     FM221800 06006KT P6SM OVC035=



000
FTUS41 KBOX 212330
TAFBOS
TAF
KBOS 212330Z 2200/2306 09006KT P6SM SCT035 BKN100
     FM220900 07005KT P6SM SCT050 BKN080
     FM221200 06007KT P6SM BKN050=



000
FTUS41 KBOX 212330
TAFACK
TAF
KACK 212330Z 2200/2224 04005KT P6SM BKN250
     FM220400 05006KT P6SM SCT025 BKN150
     FM221000 06007KT P6SM SCT015 BKN060
     FM221300 07009KT P6SM BKN050=



000
FTUS41 KBOX 212013 AAA
TAFACK
TAF AMD
KACK 212013Z 2120/2218 07010KT P6SM SCT100
     FM220200 09005KT P6SM BKN080=



000
FTUS41 KBOX 212013 AAA
TAFPVD
TAF AMD
KPVD 212013Z 2120/2218 13004KT P6SM BKN080
     FM221100 06005KT P6SM OVC050=



000
FTUS41 KBOX 212013 AAA
TAFBAF
TAF AMD
KBAF 212013Z 2120/2218 VRB03KT P6SM OVC040
     FM220300 15004KT P6SM -RA OVC025
     FM220900 00000KT P6SM -RA OVC015
     FM221100 VRB03KT P6SM OVC025
     FM221500 07005KT P6SM OVC035=



000
FTUS41 KBOX 212013 AAA
TAFORH
TAF AMD
KORH 212013Z 2120/2218 VRB04KT P6SM OVC050
     FM220200 13004KT P6SM OVC040
     FM221100 07006KT P6SM OVC035=



000
FTUS41 KBOX 212013 AAA
TAFBDL
TAF AMD
KBDL 212013Z 2120/2224 08005KT P6SM OVC040
     FM212300 15005KT P6SM OVC040
     FM220400 16005KT P6SM -RA OVC035
     FM221200 VRB03KT P6SM OVC040
     FM221500 07005KT P6SM OVC025
     FM222200 06004KT P6SM OVC035=



000
FTUS41 KBOX 212013 AAA
TAFPVD
TAF AMD
KPVD 212013Z 2120/2218 13004KT P6SM BKN080
     FM221100 06005KT P6SM OVC050=



000
FTUS41 KBOX 212013 AAA
TAFMHT
TAF AMD
KMHT 212013Z 2120/2218 VRB04KT P6SM OVC060
     FM220500 10004KT P6SM OVC040
     FM220800 08004KT P6SM OVC035=



000
FTUS41 KBOX 212013 AAA
TAFBDL
TAF AMD
KBDL 212013Z 2120/2224 08005KT P6SM OVC040
     FM212300 15005KT P6SM OVC040
     FM220400 16005KT P6SM -RA OVC035
     FM221200 VRB03KT P6SM OVC040
     FM221500 07005KT P6SM OVC025
     FM222200 06004KT P6SM OVC035=



000
FTUS41 KBOX 212013 AAA
TAFBOS
TAF AMD
KBOS 212013Z 2120/2224 09008KT P6SM BKN080=



000
FTUS41 KBOX 212013 AAA
TAFMHT
TAF AMD
KMHT 212013Z 2120/2218 VRB04KT P6SM OVC060
     FM220500 10004KT P6SM OVC040
     FM220800 08004KT P6SM OVC035=



000
FTUS41 KBOX 212013 AAA
TAFBAF
TAF AMD
KBAF 212013Z 2120/2218 VRB03KT P6SM OVC040
     FM220300 15004KT P6SM -RA OVC025
     FM220900 00000KT P6SM -RA OVC015
     FM221100 VRB03KT P6SM OVC025
     FM221500 07005KT P6SM OVC035=



000
FTUS41 KBOX 212013 AAA
TAFORH
TAF AMD
KORH 212013Z 2120/2218 VRB04KT P6SM OVC050
     FM220200 13004KT P6SM OVC040
     FM221100 07006KT P6SM OVC035=



000
FTUS41 KBOX 212013 AAA
TAFBOS
TAF AMD
KBOS 212013Z 2120/2224 09008KT P6SM BKN080=



000
FTUS41 KBOX 212013 AAA
TAFACK
TAF AMD
KACK 212013Z 2120/2218 07010KT P6SM SCT100
     FM220200 09005KT P6SM BKN080=



000
FTUS41 KBOX 211725
TAFACK
TAF
KACK 211725Z 2118/2218 05008KT P6SM SCT020 OVC050
     FM220300 07005KT P6SM BKN050=



000
FTUS41 KBOX 211725
TAFBOS
TAF
KBOS 211725Z 2118/2224 07005KT P6SM SCT040 BKN130
     FM212000 09009KT P6SM SCT060 BKN080
     FM220200 08005KT P6SM BKN060
     FM221500 06008KT P6SM BKN020=



000
FTUS41 KBOX 211725
TAFMHT
TAF
KMHT 211725Z 2118/2218 VRB04KT P6SM -RA BKN090
     FM212000 10007KT P6SM OVC070
     FM220200 VRB03KT P6SM BKN060=



000
FTUS41 KBOX 211725
TAFBDL
TAF
KBDL 211725Z 2118/2224 VRB05KT P6SM OVC060
     FM220400 VRB03KT P6SM OVC035
     FM220900 05004KT 6SM BR OVC025=



000
FTUS41 KBOX 211725
TAFPVD
TAF
KPVD 211725Z 2118/2218 VRB04KT P6SM BKN090
     FM212100 16008KT P6SM BKN070
     FM220200 10004KT P6SM BKN060
     FM220700 04004KT P6SM BKN050=



000
FTUS41 KBOX 211725
TAFORH
TAF
KORH 211725Z 2118/2218 VRB05KT P6SM BKN050=



000
FTUS41 KBOX 211725
TAFBAF
TAF
KBAF 211725Z 2118/2218 VRB05KT P6SM OVC035
     FM220200 VRB04KT P6SM OVC025
     FM220700 00000KT 5SM BR OVC025=



000
FTUS41 KBOX 211725
TAFORH
TAF
KORH 211725Z 2118/2218 VRB05KT P6SM BKN050=



000
FTUS41 KBOX 211725
TAFBDL
TAF
KBDL 211725Z 2118/2224 VRB05KT P6SM OVC060
     FM220400 VRB03KT P6SM OVC035
     FM220900 05004KT 6SM BR OVC025=



000
FTUS41 KBOX 211725
TAFBOS
TAF
KBOS 211725Z 2118/2224 07005KT P6SM SCT040 BKN130
     FM212000 09009KT P6SM SCT060 BKN080
     FM220200 08005KT P6SM BKN060
     FM221500 06008KT P6SM BKN020=



000
FTUS41 KBOX 211725
TAFMHT
TAF
KMHT 211725Z 2118/2218 VRB04KT P6SM -RA BKN090
     FM212000 10007KT P6SM OVC070
     FM220200 VRB03KT P6SM BKN060=



000
FTUS41 KBOX 211725
TAFPVD
TAF
KPVD 211725Z 2118/2218 VRB04KT P6SM BKN090
     FM212100 16008KT P6SM BKN070
     FM220200 10004KT P6SM BKN060
     FM220700 04004KT P6SM BKN050=



000
FTUS41 KBOX 211725
TAFBAF
TAF
KBAF 211725Z 2118/2218 VRB05KT P6SM OVC035
     FM220200 VRB04KT P6SM OVC025
     FM220700 00000KT 5SM BR OVC025=



000
FTUS41 KBOX 211725
TAFACK
TAF
KACK 211725Z 2118/2218 05008KT P6SM SCT020 OVC050
     FM220300 07005KT P6SM BKN050=



000
FTUS41 KBOX 211415 AAA
TAFBDL
TAF AMD
KBDL 211415Z 2114/2218 00000KT P6SM BKN040
     FM211500 17006KT P6SM VCSH OVC035
     FM211700 18007KT P6SM OVC035
     FM220400 VRB03KT P6SM OVC035
     FM220900 05004KT 6SM BR OVC025=



000
FTUS41 KBOX 211415 AAA
TAFBDL
TAF AMD
KBDL 211415Z 2114/2218 00000KT P6SM BKN040
     FM211500 17006KT P6SM VCSH OVC035
     FM211700 18007KT P6SM OVC035
     FM220400 VRB03KT P6SM OVC035
     FM220900 05004KT 6SM BR OVC025=



000
FTUS41 KBOX 211415 AAA
TAFORH
TAF AMD
KORH 211415Z 2114/2212 11006KT P6SM BKN050=



000
FTUS41 KBOX 211415 AAA
TAFMHT
TAF AMD
KMHT 211415Z 2114/2212 VRB03KT P6SM SCT110
     FM211600 VRB04KT P6SM VCSH BKN090
     FM212000 10007KT P6SM OVC070
     FM220200 VRB03KT P6SM BKN060=



000
FTUS41 KBOX 211415 AAA
TAFPVD
TAF AMD
KPVD 211415Z 2114/2212 04004KT P6SM BKN110
     FM211700 10004KT P6SM BKN090
     FM212100 16008KT P6SM BKN070
     FM220200 10004KT P6SM BKN060
     FM220700 04004KT P6SM BKN050=



000
FTUS41 KBOX 211415 AAA
TAFPVD
TAF AMD
KPVD 211415Z 2114/2212 04004KT P6SM BKN110
     FM211700 10004KT P6SM BKN090
     FM212100 16008KT P6SM BKN070
     FM220200 10004KT P6SM BKN060
     FM220700 04004KT P6SM BKN050=



000
FTUS41 KBOX 211415 AAA
TAFBOS
TAF AMD
KBOS 211415Z 2114/2218 06005KT P6SM SCT040 BKN130
     FM212000 09009KT P6SM SCT060 BKN080
     FM220200 08005KT P6SM BKN060
     FM221500 06008KT P6SM BKN020=



000
FTUS41 KBOX 211415 AAA
TAFBAF
TAF AMD
KBAF 211415Z 2114/2212 VRB03KT P6SM BKN040
     FM211500 17004KT 6SM -RA BR SCT025 BKN035
      TEMPO 2115/2116 3SM RA BR BKN025
     FM211700 18005KT P6SM OVC035
     FM220200 VRB04KT P6SM OVC025
     FM220700 00000KT 5SM BR OVC025=



000
FTUS41 KBOX 211415 AAA
TAFBOS
TAF AMD
KBOS 211415Z 2114/2218 06005KT P6SM SCT040 BKN130
     FM212000 09009KT P6SM SCT060 BKN080
     FM220200 08005KT P6SM BKN060
     FM221500 06008KT P6SM BKN020=



000
FTUS41 KBOX 211415 AAA
TAFMHT
TAF AMD
KMHT 211415Z 2114/2212 VRB03KT P6SM SCT110
     FM211600 VRB04KT P6SM VCSH BKN090
     FM212000 10007KT P6SM OVC070
     FM220200 VRB03KT P6SM BKN060=



000
FTUS41 KBOX 211415 AAA
TAFACK
TAF AMD
KACK 211415Z 2114/2212 05008KT P6SM SCT020 OVC050
     FM212100 09009KT P6SM OVC140
     FM220300 07005KT P6SM BKN050=



000
FTUS41 KBOX 211415 AAA
TAFORH
TAF AMD
KORH 211415Z 2114/2212 11006KT P6SM BKN050=



000
FTUS41 KBOX 211415 AAA
TAFBAF
TAF AMD
KBAF 211415Z 2114/2212 VRB03KT P6SM BKN040
     FM211500 17004KT 6SM -RA BR SCT025 BKN035
      TEMPO 2115/2116 3SM RA BR BKN025
     FM211700 18005KT P6SM OVC035
     FM220200 VRB04KT P6SM OVC025
     FM220700 00000KT 5SM BR OVC025=



000
FTUS41 KBOX 211415 AAA
TAFACK
TAF AMD
KACK 211415Z 2114/2212 05008KT P6SM SCT020 OVC050
     FM212100 09009KT P6SM OVC140
     FM220300 07005KT P6SM BKN050=



000
FTUS41 KBOX 211132
TAFACK
TAF
KACK 211132Z 2112/2212 06007KT P6SM OVC090
     FM211400 06008KT P6SM OVC035=



000
FTUS41 KBOX 211132
TAFBDL
TAF
KBDL 211132Z 2112/2218 VRB03KT P6SM BKN040
     FM212100 11006KT P6SM BKN050
     FM220400 VRB03KT P6SM OVC025
     FM221200 01005KT 5SM BR OVC020=



000
FTUS41 KBOX 211132
TAFBDL
TAF
KBDL 211132Z 2112/2218 VRB03KT P6SM BKN040
     FM212100 11006KT P6SM BKN050
     FM220400 VRB03KT P6SM OVC025
     FM221200 01005KT 5SM BR OVC020=



000
FTUS41 KBOX 211132
TAFBOS
TAF
KBOS 211132Z 2112/2218 VRB03KT P6SM BKN200
     FM211330 08005KT P6SM BKN100
     FM221500 06008KT P6SM BKN020=



000
FTUS41 KBOX 211132
TAFACK
TAF
KACK 211132Z 2112/2212 06007KT P6SM OVC090
     FM211400 06008KT P6SM OVC035=



000
FTUS41 KBOX 211132
TAFMHT
TAF
KMHT 211132Z 2112/2212 VRB03KT P6SM BKN130=



000
FTUS41 KBOX 211132
TAFORH
TAF
KORH 211132Z 2112/2212 VRB03KT P6SM BKN100=



000
FTUS41 KBOX 211132
TAFMHT
TAF
KMHT 211132Z 2112/2212 VRB03KT P6SM BKN130=



000
FTUS41 KBOX 211132
TAFPVD
TAF
KPVD 211132Z 2112/2212 VRB03KT P6SM SCT150 BKN250
     FM211500 07005KT P6SM BKN110=



000
FTUS41 KBOX 211132
TAFBAF
TAF
KBAF 211132Z 2112/2212 00000KT P6SM OVC040
     FM220400 00000KT P6SM OVC020
     FM220700 00000KT 5SM BR OVC025
     FM220900 VRB03KT 3SM BR OVC025=



000
FTUS41 KBOX 211132
TAFPVD
TAF
KPVD 211132Z 2112/2212 VRB03KT P6SM SCT150 BKN250
     FM211500 07005KT P6SM BKN110=



000
FTUS41 KBOX 211132
TAFBAF
TAF
KBAF 211132Z 2112/2212 00000KT P6SM OVC040
     FM220400 00000KT P6SM OVC020
     FM220700 00000KT 5SM BR OVC025
     FM220900 VRB03KT 3SM BR OVC025=



000
FTUS41 KBOX 211132
TAFORH
TAF
KORH 211132Z 2112/2212 VRB03KT P6SM BKN100=



000
FTUS41 KBOX 210957 AAA
TAFACK
TAF AMD
KACK 210957Z 2110/2206 04005KT P6SM FEW014 SCT080 OVC100
     FM211400 06011KT P6SM OVC035
     FM212300 07007KT P6SM BKN040=



000
FTUS41 KBOX 210810 AAA
TAFPVD
TAF AMD
KPVD 210810Z 2108/2206 VRB03KT P6SM BKN250
     FM211500 07005KT P6SM BKN110=



000
FTUS41 KBOX 210810 AAA
TAFPVD
TAF AMD
KPVD 210810Z 2108/2206 VRB03KT P6SM BKN250
     FM211500 07005KT P6SM BKN110=



000
FTUS41 KBOX 210810 AAA
TAFMHT
TAF AMD
KMHT 210810Z 2108/2206 00000KT P6SM BKN250
     FM211400 00000KT P6SM BKN110=



000
FTUS41 KBOX 210810 AAA
TAFMHT
TAF AMD
KMHT 210810Z 2108/2206 00000KT P6SM BKN250
     FM211400 00000KT P6SM BKN110=



000
FTUS41 KBOX 210809 AAA
TAFBDL
TAF AMD
KBDL 210809Z 2108/2212 VRB03KT P6SM FEW100 BKN250
     FM211500 17005KT P6SM SCT050 BKN100
     FM220400 VRB03KT P6SM OVC025=



000
FTUS41 KBOX 210808 AAA
TAFBOS
TAF AMD
KBOS 210808Z 2108/2212 05004KT P6SM BKN100
     FM211200 08005KT P6SM BKN100=



000
FTUS41 KBOX 210808 AAA
TAFBOS
TAF AMD
KBOS 210808Z 2108/2212 05004KT P6SM BKN100
     FM211200 08005KT P6SM BKN100=



000
FTUS41 KBOX 210538
TAFMHT
TAF
KMHT 210538Z 2106/2206 00000KT P6SM FEW250
     FM211400 00000KT P6SM BKN110=



000
FTUS41 KBOX 210538
TAFBAF
TAF
KBAF 210538Z 2106/2206 00000KT P6SM FEW100 BKN250
     FM211500 17005KT P6SM SCT050 BKN100
     FM220400 00000KT P6SM OVC025=



000
FTUS41 KBOX 210538
TAFORH
TAF
KORH 210538Z 2106/2206 VRB03KT P6SM SCT200
     FM211200 VRB03KT P6SM BKN100=



000
FTUS41 KBOX 210538
TAFBDL
TAF
KBDL 210538Z 2106/2212 15005KT P6SM FEW100 BKN250
     FM211500 17005KT P6SM SCT050 BKN100
     FM220400 VRB03KT P6SM OVC025=



000
FTUS41 KBOX 210538
TAFPVD
TAF
KPVD 210538Z 2106/2206 VRB03KT P6SM FEW250
     FM211500 07005KT P6SM BKN110=



000
FTUS41 KBOX 210538
TAFBOS
TAF
KBOS 210538Z 2106/2212 VRB03KT 6SM BR FEW250
     FM210800 05004KT 6SM BR SCT020
     FM211200 08005KT P6SM BKN100=



000
FTUS41 KBOX 210538
TAFACK
TAF
KACK 210538Z 2106/2206 06007KT P6SM SCT040 OVC080
     FM210900 05007KT P6SM OVC025
     FM211400 06011KT P6SM OVC035
     FM212300 07007KT P6SM BKN040=



000
FTUS41 KBOX 210538
TAFMHT
TAF
KMHT 210538Z 2106/2206 00000KT P6SM FEW250
     FM211400 00000KT P6SM BKN110=



000
FTUS41 KBOX 210538
TAFBDL
TAF
KBDL 210538Z 2106/2212 15005KT P6SM FEW100 BKN250
     FM211500 17005KT P6SM SCT050 BKN100
     FM220400 VRB03KT P6SM OVC025=



000
FTUS41 KBOX 210538
TAFBOS
TAF
KBOS 210538Z 2106/2212 VRB03KT 6SM BR FEW250
     FM210800 05004KT 6SM BR SCT020
     FM211200 08005KT P6SM BKN100=



000
FTUS41 KBOX 210538
TAFORH
TAF
KORH 210538Z 2106/2206 VRB03KT P6SM SCT200
     FM211200 VRB03KT P6SM BKN100=



000
FTUS41 KBOX 210538
TAFBAF
TAF
KBAF 210538Z 2106/2206 00000KT P6SM FEW100 BKN250
     FM211500 17005KT P6SM SCT050 BKN100
     FM220400 00000KT P6SM OVC025=



000
FTUS41 KBOX 210538
TAFACK
TAF
KACK 210538Z 2106/2206 06007KT P6SM SCT040 OVC080
     FM210900 05007KT P6SM OVC025
     FM211400 06011KT P6SM OVC035
     FM212300 07007KT P6SM BKN040=



000
FTUS41 KBOX 210538
TAFPVD
TAF
KPVD 210538Z 2106/2206 VRB03KT P6SM FEW250
     FM211500 07005KT P6SM BKN110=



000
FTUS41 KBOX 210331 AAB
TAFACK
TAF AMD
KACK 210331Z 2104/2124 06007KT P6SM SCT025 SCT100
     FM210600 04011KT P6SM OVC040
     FM210800 05013KT P6SM -RA OVC025
     FM211300 04015KT P6SM OVC035=



000
FTUS41 KBOX 210331 AAB
TAFACK
TAF AMD
KACK 210331Z 2104/2124 06007KT P6SM SCT025 SCT100
     FM210600 04011KT P6SM OVC040
     FM210800 05013KT P6SM -RA OVC025
     FM211300 04015KT P6SM OVC035=



000
FTUS41 KBOX 210330 AAA
TAFPVD
TAF AMD
KPVD 210330Z 2104/2124 00000KT P6SM FEW250
     FM210800 VRB03KT 3SM BR FEW250
     FM211200 01005KT P6SM BKN200=



000
FTUS41 KBOX 210330 AAA
TAFPVD
TAF AMD
KPVD 210330Z 2104/2124 00000KT P6SM FEW250
     FM210800 VRB03KT 3SM BR FEW250
     FM211200 01005KT P6SM BKN200=



000
FTUS41 KBOX 210329 AAA
TAFMHT
TAF AMD
KMHT 210329Z 2103/2124 VRB03KT P6SM SKC
     FM210400 00000KT P6SM FEW250
     FM211500 11004KT P6SM BKN090=



000
FTUS41 KBOX 210329 AAA
TAFMHT
TAF AMD
KMHT 210329Z 2103/2124 VRB03KT P6SM SKC
     FM210400 00000KT P6SM FEW250
     FM211500 11004KT P6SM BKN090=



000
FTUS41 KBOX 210328 AAA
TAFBDL
TAF AMD
KBDL 210328Z 2103/2206 16007KT P6SM SCT090
     FM210400 VRB03KT P6SM SCT060
     FM210600 00000KT P6SM BKN050=



000
FTUS41 KBOX 210328 AAA
TAFBOS
TAF AMD
KBOS 210328Z 2103/2206 VRB03KT P6SM FEW250
     FM210500 00000KT P6SM SCT250
     FM211200 03004KT P6SM BKN200=



000
FTUS41 KBOX 210328 AAA
TAFBOS
TAF AMD
KBOS 210328Z 2103/2206 VRB03KT P6SM FEW250
     FM210500 00000KT P6SM SCT250
     FM211200 03004KT P6SM BKN200=



000
FTUS41 KBOX 210139 AAA
TAFACK
TAF AMD
KACK 210139Z 2102/2124 05008KT P6SM BKN015
     FM210300 06007KT P6SM BKN015
     FM210600 04011KT P6SM OVC040
     FM210800 05013KT P6SM -RA OVC025
     FM211300 04015KT P6SM OVC035=



000
FTUS41 KBOX 202320
TAFORH
TAF
KORH 202320Z 2100/2124 13005KT P6SM FEW250
     FM210500 00000KT P6SM SCT250
     FM211200 VRB03KT P6SM BKN070
     FM211900 08007KT P6SM BKN050=



000
FTUS41 KBOX 202320
TAFBOS
TAF
KBOS 202320Z 2100/2206 11006KT P6SM FEW250
     FM210500 00000KT P6SM SCT250
     FM211200 03004KT P6SM BKN200=



000
FTUS41 KBOX 202320
TAFBDL
TAF
KBDL 202320Z 2100/2206 17007KT P6SM SCT060
     FM210400 VRB03KT P6SM SCT060
     FM210600 00000KT P6SM BKN050=



000
FTUS41 KBOX 202320
TAFPVD
TAF
KPVD 202320Z 2100/2124 15006KT P6SM SKC
     FM210400 00000KT P6SM FEW250
     FM210800 VRB03KT 3SM BR FEW250
     FM211200 01005KT P6SM BKN200=



000
FTUS41 KBOX 202320
TAFACK
TAF
KACK 202320Z 2100/2124 05008KT P6SM SCT250
     FM210300 06007KT P6SM BKN050
     FM210600 04011KT P6SM OVC040
     FM210800 05013KT P6SM -RA OVC025
     FM211300 04015KT P6SM OVC035=



000
FTUS41 KBOX 202320
TAFBAF
TAF
KBAF 202320Z 2100/2124 17004KT P6SM SCT060
     FM210700 00000KT P6SM BKN050
     FM210900 00000KT 2SM BR BKN040
     FM211200 00000KT P6SM BKN035=



000
FTUS41 KBOX 202320
TAFPVD
TAF
KPVD 202320Z 2100/2124 15006KT P6SM SKC
     FM210400 00000KT P6SM FEW250
     FM210800 VRB03KT 3SM BR FEW250
     FM211200 01005KT P6SM BKN200=



000
FTUS41 KBOX 202320
TAFBDL
TAF
KBDL 202320Z 2100/2206 17007KT P6SM SCT060
     FM210400 VRB03KT P6SM SCT060
     FM210600 00000KT P6SM BKN050=



000
FTUS41 KBOX 202320
TAFBAF
TAF
KBAF 202320Z 2100/2124 17004KT P6SM SCT060
     FM210700 00000KT P6SM BKN050
     FM210900 00000KT 2SM BR BKN040
     FM211200 00000KT P6SM BKN035=



000
FTUS41 KBOX 202320
TAFACK
TAF
KACK 202320Z 2100/2124 05008KT P6SM SCT250
     FM210300 06007KT P6SM BKN050
     FM210600 04011KT P6SM OVC040
     FM210800 05013KT P6SM -RA OVC025
     FM211300 04015KT P6SM OVC035=



000
FTUS41 KBOX 202320
TAFORH
TAF
KORH 202320Z 2100/2124 13005KT P6SM FEW250
     FM210500 00000KT P6SM SCT250
     FM211200 VRB03KT P6SM BKN070
     FM211900 08007KT P6SM BKN050=



000
FTUS41 KBOX 202320
TAFMHT
TAF
KMHT 202320Z 2100/2124 11005KT P6SM SKC
     FM210400 00000KT P6SM FEW250
     FM211500 11004KT P6SM BKN090=



000
FTUS41 KBOX 202320
TAFBOS
TAF
KBOS 202320Z 2100/2206 11006KT P6SM FEW250
     FM210500 00000KT P6SM SCT250
     FM211200 03004KT P6SM BKN200=



000
FTUS41 KBOX 202320
TAFMHT
TAF
KMHT 202320Z 2100/2124 11005KT P6SM SKC
     FM210400 00000KT P6SM FEW250
     FM211500 11004KT P6SM BKN090=



000
FTUS41 KBOX 202016 AAA
TAFBAF
TAF AMD
KBAF 202016Z 2020/2118 16004KT P6SM SCT060
     FM210700 00000KT P6SM BKN050=



000
FTUS41 KBOX 202016 AAA
TAFORH
TAF AMD
KORH 202016Z 2020/2118 VRB05KT P6SM SCT250
     FM211200 VRB03KT P6SM BKN070=



000
FTUS41 KBOX 202016 AAA
TAFBOS
TAF AMD
KBOS 202016Z 2020/2124 09008KT P6SM FEW250
     FM210100 06004KT P6SM SCT250=



000
FTUS41 KBOX 202016 AAA
TAFBDL
TAF AMD
KBDL 202016Z 2020/2124 17006KT P6SM SCT060
     FM210500 VRB04KT P6SM BKN050=



000
FTUS41 KBOX 202016 AAA
TAFMHT
TAF AMD
KMHT 202016Z 2020/2118 12006KT P6SM SKC
     FM210300 VRB05KT P6SM FEW250
     FM211500 11004KT P6SM BKN090=



000
FTUS41 KBOX 202016 AAA
TAFPVD
TAF AMD
KPVD 202016Z 2020/2118 15009KT P6SM FEW250
     FM210200 VRB05KT P6SM SKC
     FM210800 VRB05KT 3SM BR FEW250
     FM211100 01005KT P6SM BKN200=



000
FTUS41 KBOX 202016 AAA
TAFACK
TAF AMD
KACK 202016Z 2020/2118 06008KT P6SM SKC
     FM210300 05008KT P6SM BKN050
     FM210600 04012KT P6SM -RA SCT025 OVC040
     FM211300 04015KT P6SM OVC035=



000
FTUS41 KBOX 202016 AAA
TAFMHT
TAF AMD
KMHT 202016Z 2020/2118 12006KT P6SM SKC
     FM210300 VRB05KT P6SM FEW250
     FM211500 11004KT P6SM BKN090=



000
FTUS41 KBOX 202016 AAA
TAFBDL
TAF AMD
KBDL 202016Z 2020/2124 17006KT P6SM SCT060
     FM210500 VRB04KT P6SM BKN050=



000
FTUS41 KBOX 202016 AAA
TAFACK
TAF AMD
KACK 202016Z 2020/2118 06008KT P6SM SKC
     FM210300 05008KT P6SM BKN050
     FM210600 04012KT P6SM -RA SCT025 OVC040
     FM211300 04015KT P6SM OVC035=



000
FTUS41 KBOX 202016 AAA
TAFORH
TAF AMD
KORH 202016Z 2020/2118 VRB05KT P6SM SCT250
     FM211200 VRB03KT P6SM BKN070=



000
FTUS41 KBOX 202016 AAA
TAFPVD
TAF AMD
KPVD 202016Z 2020/2118 15009KT P6SM FEW250
     FM210200 VRB05KT P6SM SKC
     FM210800 VRB05KT 3SM BR FEW250
     FM211100 01005KT P6SM BKN200=



000
FTUS41 KBOX 202016 AAA
TAFBAF
TAF AMD
KBAF 202016Z 2020/2118 16004KT P6SM SCT060
     FM210700 00000KT P6SM BKN050=



000
FTUS41 KBOX 202016 AAA
TAFBOS
TAF AMD
KBOS 202016Z 2020/2124 09008KT P6SM FEW250
     FM210100 06004KT P6SM SCT250=



000
FTUS41 KBOX 201723
TAFBAF
TAF
KBAF 201723Z 2018/2118 VRB04KT P6SM FEW050
     FM202300 17004KT P6SM SCT200
     FM210300 00000KT P6SM BKN200
     FM210900 00000KT P6SM BKN035=



000
FTUS41 KBOX 201723
TAFBOS
TAF
KBOS 201723Z 2018/2124 10009KT P6SM FEW050
     FM210100 12005KT P6SM FEW250
     FM211800 09009KT P6SM BKN070=



000
FTUS41 KBOX 201723
TAFACK
TAF
KACK 201723Z 2018/2118 08009KT P6SM SKC
     FM210300 08004KT P6SM SCT080
     FM211400 06008KT P6SM SCT090=



000
FTUS41 KBOX 201723
TAFPVD
TAF
KPVD 201723Z 2018/2118 14006KT P6SM FEW050
     FM210400 VRB04KT P6SM FEW250
     FM211600 09005KT P6SM BKN080=



000
FTUS41 KBOX 201723
TAFMHT
TAF
KMHT 201723Z 2018/2118 VRB05KT P6SM FEW050
     FM202100 11009KT P6SM FEW250
     FM210000 VRB05KT P6SM FEW250
     FM211600 11004KT P6SM BKN060=



000
FTUS41 KBOX 201723
TAFORH
TAF
KORH 201723Z 2018/2118 VRB04KT P6SM FEW040
     FM202100 10007KT P6SM FEW070
     FM210200 VRB04KT P6SM SCT250
     FM210900 28004KT P6SM SCT050=



000
FTUS41 KBOX 201723
TAFBDL
TAF
KBDL 201723Z 2018/2124 VRB04KT P6SM FEW050
     FM202300 17006KT P6SM SCT250
     FM210500 VRB03KT P6SM BKN080=



000
FTUS41 KBOX 201723
TAFORH
TAF
KORH 201723Z 2018/2118 VRB04KT P6SM FEW040
     FM202100 10007KT P6SM FEW070
     FM210200 VRB04KT P6SM SCT250
     FM210900 28004KT P6SM SCT050=



000
FTUS41 KBOX 201723
TAFACK
TAF
KACK 201723Z 2018/2118 08009KT P6SM SKC
     FM210300 08004KT P6SM SCT080
     FM211400 06008KT P6SM SCT090=



000
FTUS41 KBOX 201723
TAFPVD
TAF
KPVD 201723Z 2018/2118 14006KT P6SM FEW050
     FM210400 VRB04KT P6SM FEW250
     FM211600 09005KT P6SM BKN080=



000
FTUS41 KBOX 201723
TAFBDL
TAF
KBDL 201723Z 2018/2124 VRB04KT P6SM FEW050
     FM202300 17006KT P6SM SCT250
     FM210500 VRB03KT P6SM BKN080=



000
FTUS41 KBOX 201723
TAFMHT
TAF
KMHT 201723Z 2018/2118 VRB05KT P6SM FEW050
     FM202100 11009KT P6SM FEW250
     FM210000 VRB05KT P6SM FEW250
     FM211600 11004KT P6SM BKN060=



000
FTUS41 KBOX 201723
TAFBAF
TAF
KBAF 201723Z 2018/2118 VRB04KT P6SM FEW050
     FM202300 17004KT P6SM SCT200
     FM210300 00000KT P6SM BKN200
     FM210900 00000KT P6SM BKN035=



000
FTUS41 KBOX 201723
TAFBOS
TAF
KBOS 201723Z 2018/2124 10009KT P6SM FEW050
     FM210100 12005KT P6SM FEW250
     FM211800 09009KT P6SM BKN070=



000
FTUS41 KBOX 201122
TAFACK
TAF
KACK 201122Z 2012/2112 07004KT P6SM SKC
     FM201500 06009KT P6SM SKC
     FM210200 08005KT P6SM FEW100=



000
FTUS41 KBOX 201122
TAFMHT
TAF
KMHT 201122Z 2012/2112 VRB03KT P6SM FEW250
     FM202000 13006KT P6SM FEW250
     FM210300 00000KT P6SM FEW250=



000
FTUS41 KBOX 201122
TAFBDL
TAF
KBDL 201122Z 2012/2118 VRB03KT P6SM FEW060 SCT250
     FM202300 17006KT P6SM SCT250
     FM210100 17005KT P6SM SCT050
     FM210500 VRB03KT P6SM BKN040=



000
FTUS41 KBOX 201122
TAFBAF
TAF
KBAF 201122Z 2012/2112 VRB03KT P6SM FEW060 SCT250
     FM210300 00000KT P6SM BKN040
     FM210900 00000KT 5SM BR BKN050=



000
FTUS41 KBOX 201122
TAFORH
TAF
KORH 201122Z 2012/2112 00000KT P6SM FEW250
     FM202000 14004KT P6SM SCT050
     FM210600 26004KT P6SM SCT250
     FM211000 VRB03KT P6SM SCT050=



000
FTUS41 KBOX 201122
TAFBOS
TAF
KBOS 201122Z 2012/2118 02003KT P6SM FEW250
     FM201400 11006KT P6SM SKC=



000
FTUS41 KBOX 201122
TAFPVD
TAF
KPVD 201122Z 2012/2112 VRB03KT P6SM FEW250
     FM201700 14006KT P6SM FEW250
     FM210400 00000KT P6SM FEW250=



000
FTUS41 KBOX 201122
TAFBOS
TAF
KBOS 201122Z 2012/2118 02003KT P6SM FEW250
     FM201400 11006KT P6SM SKC=



000
FTUS41 KBOX 201122
TAFORH
TAF
KORH 201122Z 2012/2112 00000KT P6SM FEW250
     FM202000 14004KT P6SM SCT050
     FM210600 26004KT P6SM SCT250
     FM211000 VRB03KT P6SM SCT050=



000
FTUS41 KBOX 201122
TAFMHT
TAF
KMHT 201122Z 2012/2112 VRB03KT P6SM FEW250
     FM202000 13006KT P6SM FEW250
     FM210300 00000KT P6SM FEW250=



000
FTUS41 KBOX 201122
TAFBDL
TAF
KBDL 201122Z 2012/2118 VRB03KT P6SM FEW060 SCT250
     FM202300 17006KT P6SM SCT250
     FM210100 17005KT P6SM SCT050
     FM210500 VRB03KT P6SM BKN040=



000
FTUS41 KBOX 201122
TAFACK
TAF
KACK 201122Z 2012/2112 07004KT P6SM SKC
     FM201500 06009KT P6SM SKC
     FM210200 08005KT P6SM FEW100=



000
FTUS41 KBOX 201122
TAFBAF
TAF
KBAF 201122Z 2012/2112 VRB03KT P6SM FEW060 SCT250
     FM210300 00000KT P6SM BKN040
     FM210900 00000KT 5SM BR BKN050=



000
FTUS41 KBOX 201122
TAFPVD
TAF
KPVD 201122Z 2012/2112 VRB03KT P6SM FEW250
     FM201700 14006KT P6SM FEW250
     FM210400 00000KT P6SM FEW250=



000
FTUS41 KBOX 200819 AAA
TAFPVD
TAF AMD
KPVD 200819Z 2008/2106 VRB03KT P6SM FEW250
     FM201700 14006KT P6SM FEW250
     FM210400 00000KT P6SM FEW250=



000
FTUS41 KBOX 200819 AAA
TAFPVD
TAF AMD
KPVD 200819Z 2008/2106 VRB03KT P6SM FEW250
     FM201700 14006KT P6SM FEW250
     FM210400 00000KT P6SM FEW250=



000
FTUS41 KBOX 200818 AAA
TAFBDL
TAF AMD
KBDL 200818Z 2008/2112 VRB03KT P6SM FEW250
     FM201900 17004KT P6SM SCT250
     FM210100 17005KT P6SM SCT080
     FM210500 VRB03KT P6SM BKN060=



000
FTUS41 KBOX 200818 AAA
TAFBDL
TAF AMD
KBDL 200818Z 2008/2112 VRB03KT P6SM FEW250
     FM201900 17004KT P6SM SCT250
     FM210100 17005KT P6SM SCT080
     FM210500 VRB03KT P6SM BKN060=



000
FTUS41 KBOX 200818 AAA
TAFBOS
TAF AMD
KBOS 200818Z 2008/2112 21004KT P6SM FEW250
     FM201400 10007KT P6SM SKC
     FM210300 VRB03KT P6SM FEW250=



000
FTUS41 KBOX 200818 AAA
TAFBOS
TAF AMD
KBOS 200818Z 2008/2112 21004KT P6SM FEW250
     FM201400 10007KT P6SM SKC
     FM210300 VRB03KT P6SM FEW250=



000
FTUS41 KBOX 200818 AAA
TAFMHT
TAF AMD
KMHT 200818Z 2008/2106 VRB03KT P6SM FEW250
     FM202000 13006KT P6SM FEW250
     FM210300 00000KT P6SM FEW250=



000
FTUS41 KBOX 200818 AAA
TAFMHT
TAF AMD
KMHT 200818Z 2008/2106 VRB03KT P6SM FEW250
     FM202000 13006KT P6SM FEW250
     FM210300 00000KT P6SM FEW250=



000
FTUS41 KBOX 200540
TAFORH
TAF
KORH 200540Z 2006/2106 25006KT P6SM SCT250
     FM202000 14004KT P6SM SCT080
     FM210500 25004KT P6SM SCT040=



000
FTUS41 KBOX 200540
TAFBAF
TAF
KBAF 200540Z 2006/2106 VRB03KT P6SM FEW250
     FM202000 18004KT P6SM SCT250
     FM202200 18004KT P6SM SCT060
     FM210300 00000KT P6SM BKN060=



000
FTUS41 KBOX 200540
TAFMHT
TAF
KMHT 200540Z 2006/2106 VRB03KT P6SM SCT250
     FM202000 13006KT P6SM FEW250
     FM210300 00000KT P6SM FEW250=



000
FTUS41 KBOX 200540
TAFBDL
TAF
KBDL 200540Z 2006/2112 VRB03KT P6SM FEW250
     FM201900 17004KT P6SM SCT250
     FM210100 17005KT P6SM SCT080
     FM210500 VRB03KT P6SM BKN060=



000
FTUS41 KBOX 200540
TAFPVD
TAF
KPVD 200540Z 2006/2106 VRB03KT P6SM SCT250
     FM201700 14006KT P6SM FEW250
     FM210400 00000KT P6SM FEW250=



000
FTUS41 KBOX 200540
TAFBOS
TAF
KBOS 200540Z 2006/2112 20004KT P6SM SCT250
     FM201400 10007KT P6SM SKC
     FM210300 VRB03KT P6SM FEW250=



000
FTUS41 KBOX 200540
TAFACK
TAF
KACK 200540Z 2006/2106 12004KT P6SM SCT250
     FM201200 05006KT P6SM SKC=



000
FTUS41 KBOX 200540
TAFMHT
TAF
KMHT 200540Z 2006/2106 VRB03KT P6SM SCT250
     FM202000 13006KT P6SM FEW250
     FM210300 00000KT P6SM FEW250=



000
FTUS41 KBOX 200540
TAFBAF
TAF
KBAF 200540Z 2006/2106 VRB03KT P6SM FEW250
     FM202000 18004KT P6SM SCT250
     FM202200 18004KT P6SM SCT060
     FM210300 00000KT P6SM BKN060=



000
FTUS41 KBOX 200540
TAFORH
TAF
KORH 200540Z 2006/2106 25006KT P6SM SCT250
     FM202000 14004KT P6SM SCT080
     FM210500 25004KT P6SM SCT040=



000
FTUS41 KBOX 200540
TAFPVD
TAF
KPVD 200540Z 2006/2106 VRB03KT P6SM SCT250
     FM201700 14006KT P6SM FEW250
     FM210400 00000KT P6SM FEW250=



000
FTUS41 KBOX 200540
TAFBDL
TAF
KBDL 200540Z 2006/2112 VRB03KT P6SM FEW250
     FM201900 17004KT P6SM SCT250
     FM210100 17005KT P6SM SCT080
     FM210500 VRB03KT P6SM BKN060=



000
FTUS41 KBOX 200540
TAFBOS
TAF
KBOS 200540Z 2006/2112 20004KT P6SM SCT250
     FM201400 10007KT P6SM SKC
     FM210300 VRB03KT P6SM FEW250=



000
FTUS41 KBOX 200540
TAFACK
TAF
KACK 200540Z 2006/2106 12004KT P6SM SCT250
     FM201200 05006KT P6SM SKC=



000
FTUS41 KBOX 200314 AAA
TAFPVD
TAF AMD
KPVD 200314Z 2003/2024 21005KT P6SM FEW250
     FM200600 00000KT 6SM BR FEW250
     FM200800 00000KT P6SM FEW250
     FM201900 16007KT P6SM FEW250=



000
FTUS41 KBOX 200314 AAA
TAFPVD
TAF AMD
KPVD 200314Z 2003/2024 21005KT P6SM FEW250
     FM200600 00000KT 6SM BR FEW250
     FM200800 00000KT P6SM FEW250
     FM201900 16007KT P6SM FEW250=



000
FTUS41 KBOX 200313 AAA
TAFMHT
TAF AMD
KMHT 200313Z 2003/2024 VRB03KT P6SM SCT250
     FM202000 12007KT P6SM FEW250=



000
FTUS41 KBOX 200313 AAA
TAFBAF
TAF AMD
KBAF 200313Z 2003/2024 00000KT P6SM FEW250
     FM200900 00000KT 6SM BR FEW250
     FM201100 00000KT 3SM BR FEW250
     FM201300 00000KT P6SM FEW250=



000
FTUS41 KBOX 200313 AAA
TAFBAF
TAF AMD
KBAF 200313Z 2003/2024 00000KT P6SM FEW250
     FM200900 00000KT 6SM BR FEW250
     FM201100 00000KT 3SM BR FEW250
     FM201300 00000KT P6SM FEW250=



000
FTUS41 KBOX 200312 AAA
TAFBDL
TAF AMD
KBDL 200312Z 2003/2106 18005KT P6SM FEW250
     FM200800 00000KT P6SM FEW250
     FM201000 00000KT 6SM BR FEW250
     FM210000 18007KT P6SM SCT250
     FM210300 VRB03KT P6SM SCT250=



000
FTUS41 KBOX 200312 AAA
TAFBDL
TAF AMD
KBDL 200312Z 2003/2106 18005KT P6SM FEW250
     FM200800 00000KT P6SM FEW250
     FM201000 00000KT 6SM BR FEW250
     FM210000 18007KT P6SM SCT250
     FM210300 VRB03KT P6SM SCT250=



000
FTUS41 KBOX 200311 AAA
TAFBOS
TAF AMD
KBOS 200311Z 2003/2106 16005KT P6SM FEW250
     FM200400 19004KT P6SM FEW250
     FM200800 00000KT P6SM FEW250
     FM201500 09007KT P6SM FEW250
     FM210200 16005KT P6SM FEW250=



000
FTUS41 KBOX 200311 AAA
TAFBOS
TAF AMD
KBOS 200311Z 2003/2106 16005KT P6SM FEW250
     FM200400 19004KT P6SM FEW250
     FM200800 00000KT P6SM FEW250
     FM201500 09007KT P6SM FEW250
     FM210200 16005KT P6SM FEW250=



    US Dept of Commerce
    National Oceanic and Atmospheric Administration
    National Weather Service
    1325 East West Highway
    Silver Spring, MD 20910
    Page Author: NWS Internet Services Team
Disclaimer
Information Quality
Credits
Glossary
Privacy Policy
Freedom of Information Act (FOIA)
About Us
Career Opportunities